Time;durP1;ratioP1;P1;durP2;ratioP2;P2;SDS_P1;SDS_P2;PMS_P1;PMS_P2;Temp;Humidity;BMP_temperature;BMP_pressure;BME280_temperature;BME280_humidity;BME280_pressure;Samples;Min_cycle;Max_cycle;Signal;HPM_P1;HPM_P2
2022/12/23 00:01:25;;;;;;;0.83;0.83;;;;;;;1.32;100.00;99427.28;5051206;28;20743;-62
2022/12/23 00:03:52;;;;;;;0.70;0.70;;;;;;;1.34;100.00;99428.13;5051447;28;20207;-62
2022/12/23 00:06:20;;;;;;;3.57;3.47;;;;;;;1.34;100.00;99428.13;5051718;28;20695;-62
2022/12/23 00:08:47;;;;;;;0.70;0.70;;;;;;;1.29;100.00;99424.72;5051534;28;20664;-62
2022/12/23 00:11:17;;;;;;;0.90;0.90;;;;;;;1.26;100.00;99428.06;5050904;28;20197;-62
2022/12/23 00:16:28;;;;;;;0.87;0.87;;;;;;;1.22;100.00;99428.88;5050800;28;20199;-62
2022/12/23 00:18:55;;;;;;;1.37;1.37;;;;;;;1.24;100.00;99421.31;5050959;28;20216;-62
2022/12/23 00:21:22;;;;;;;0.50;0.50;;;;;;;1.27;100.00;99421.31;5050838;28;20207;-62
2022/12/23 00:23:51;;;;;;;0.70;0.70;;;;;;;1.26;100.00;99419.66;5049227;28;20201;-62
2022/12/23 00:26:21;;;;;;;0.80;0.80;;;;;;;1.25;100.00;99423.00;5050585;28;20208;-62
2022/12/23 00:28:48;;;;;;;0.70;0.70;;;;;;;1.25;100.00;99412.91;5051107;28;20196;-62
2022/12/23 00:31:17;;;;;;;1.43;1.33;;;;;;;1.26;100.00;99424.72;5050987;28;20267;-61
2022/12/23 00:33:47;;;;;;;0.50;0.50;;;;;;;1.20;100.00;99419.59;5051239;28;20657;-61
2022/12/23 00:36:17;;;;;;;0.70;0.70;;;;;;;1.22;100.00;99418.78;5050909;28;20580;-65
2022/12/23 00:44:14;;;;;;;0.70;0.70;;;;;;;1.15;100.00;99421.25;5049840;28;20208;-62
2022/12/23 00:46:41;;;;;;;0.90;0.90;;;;;;;1.11;100.00;99419.53;5050462;28;20208;-62
2022/12/23 00:51:52;;;;;;;1.73;1.73;;;;;;;1.09;100.00;99413.63;5050614;28;20338;-62
2022/12/23 00:54:19;;;;;;;0.80;0.80;;;;;;;1.04;100.00;99408.53;5050752;28;20201;-62
2022/12/23 00:56:47;;;;;;;0.60;0.60;;;;;;;1.07;100.00;99412.78;5050636;28;20209;-62
2022/12/23 00:59:14;;;;;;;0.90;0.90;;;;;;;1.06;100.00;99409.41;5050059;28;20750;-61
2022/12/23 01:07:09;;;;;;;1.43;1.43;;;;;;;1.02;100.00;99406.00;5050399;28;20204;-62
2022/12/23 01:09:36;;;;;;;1.20;1.20;;;;;;;0.95;100.00;99394.16;5049809;28;20242;-62
2022/12/23 01:12:05;;;;;;;1.43;1.33;;;;;;;0.98;100.00;99396.72;5050598;28;20676;-61
2022/12/23 01:14:32;;;;;;;0.70;0.70;;;;;;;0.99;100.00;99393.38;5047997;28;20208;-62
2022/12/23 01:17:00;;;;;;;0.60;0.60;;;;;;;0.99;100.00;99398.41;5048753;28;20554;-62
2022/12/23 01:19:27;;;;;;;0.67;0.67;;;;;;;1.01;100.00;99394.22;5050144;28;20688;-62
2022/12/23 01:21:54;;;;;;;0.60;0.60;;;;;;;0.96;100.00;99380.72;5050317;28;20211;-61
2022/12/23 01:24:21;;;;;;;1.97;1.87;;;;;;;1.03;100.00;99384.97;5050190;28;20806;-61
2022/12/23 01:26:47;;;;;;;2.00;1.47;;;;;;;1.02;100.00;99385.81;5050305;28;20220;-62
2022/12/23 01:29:16;;;;;;;0.77;0.77;;;;;;;1.05;100.00;99380.78;5050221;28;20669;-62
2022/12/23 01:31:42;;;;;;;0.97;0.97;;;;;;;1.01;100.00;99384.13;5049933;28;20206;-61
2022/12/23 01:34:09;;;;;;;0.60;0.60;;;;;;;1.03;100.00;99384.97;5049968;28;20578;-61
2022/12/23 01:36:36;;;;;;;0.70;0.70;;;;;;;1.04;100.00;99379.09;5050134;28;20665;-61
2022/12/23 01:39:04;;;;;;;0.67;0.67;;;;;;;1.05;100.00;99377.41;5050088;28;20216;-62
2022/12/23 01:44:58;;;;;;;0.87;0.87;;;;;;;0.98;100.00;99384.09;5050308;28;20219;-61
2022/12/23 01:47:45;;;;;;;1.30;1.30;;;;;;;0.91;100.00;99387.41;5049749;28;20239;-61
2022/12/23 01:50:16;;;;;;;0.50;0.50;;;;;;;0.93;100.00;99379.84;5049989;28;20200;-62
2022/12/23 01:52:45;;;;;;;0.70;0.70;;;;;;;0.91;100.00;99384.88;5053060;28;20212;-62
2022/12/23 01:55:15;;;;;;;0.70;0.70;;;;;;;0.93;100.00;99380.72;5053970;28;20200;-62
2022/12/23 01:57:45;;;;;;;0.70;0.70;;;;;;;0.88;100.00;99364.66;5053855;28;20193;-62
2022/12/23 02:05:44;;;;;;;0.80;0.80;;;;;;;1.01;100.00;99358.03;5053208;28;20212;-62
2022/12/23 02:11:27;;;;;;;0.70;0.70;;;;;;;0.99;100.00;99345.41;5052994;28;20262;-62
2022/12/23 02:17:00;;;;;;;0.60;0.60;;;;;;;0.95;100.00;99358.84;5053679;28;20192;-62
2022/12/23 02:19:55;;;;;;;0.70;0.70;;;;;;;0.96;100.00;99357.16;5053578;28;20278;-61
2022/12/23 02:22:41;;;;;;;0.83;0.83;;;;;;;0.95;100.00;99352.94;5053071;28;20204;-61
2022/12/23 02:25:32;;;;;;;0.60;0.60;;;;;;;0.87;100.00;99355.41;5053448;28;20207;-61
2022/12/23 02:28:20;;;;;;;0.60;0.60;;;;;;;0.91;100.00;99362.16;5053209;28;20196;-61
2022/12/23 02:31:00;;;;;;;0.60;0.60;;;;;;;0.91;100.00;99362.16;5053445;28;20644;-61
2022/12/23 02:33:38;;;;;;;1.20;1.20;;;;;;;0.91;100.00;99362.16;5052738;28;20295;-62
2022/12/23 02:36:17;;;;;;;0.60;0.60;;;;;;;0.92;100.00;99355.44;5052895;28;20196;-62
2022/12/23 02:38:53;;;;;;;0.70;0.70;;;;;;;0.95;100.00;99352.94;5053308;28;20209;-61
2022/12/23 02:41:28;;;;;;;0.60;0.60;;;;;;;0.97;100.00;99347.06;5052945;28;20196;-62
2022/12/23 02:44:00;;;;;;;0.53;0.53;;;;;;;0.96;100.00;99345.41;5051622;28;20204;-62
2022/12/23 02:46:33;;;;;;;1.23;1.23;;;;;;;0.98;100.00;99343.72;5050638;28;20263;-62
2022/12/23 02:49:07;;;;;;;0.60;0.60;;;;;;;0.97;100.00;99336.97;5051662;28;20652;-62
2022/12/23 02:51:38;;;;;;;1.13;1.13;;;;;;;0.79;100.00;99314.13;5051979;28;20255;-62
2022/12/23 02:54:09;;;;;;;0.70;0.70;;;;;;;0.99;100.00;99345.41;5053082;28;20250;-62
2022/12/23 02:56:39;;;;;;;0.70;0.70;;;;;;;1.02;100.00;99340.38;5052887;28;20230;-62
2022/12/23 02:59:10;;;;;;;0.60;0.60;;;;;;;0.98;100.00;99336.16;5052325;28;20764;-61
2022/12/23 03:01:39;;;;;;;0.63;0.63;;;;;;;0.99;100.00;99334.47;5052239;28;20723;-61
2022/12/23 03:04:06;;;;;;;0.60;0.60;;;;;;;0.99;100.00;99329.44;5051725;28;20207;-62
2022/12/23 03:06:39;;;;;;;0.87;0.87;;;;;;;0.84;100.00;99309.97;5052548;28;20205;-61
2022/12/23 03:09:06;;;;;;;0.70;0.70;;;;;;;0.96;100.00;99329.41;5052570;28;20200;-61
2022/12/23 03:11:45;;;;;;;0.70;0.70;;;;;;;0.92;100.00;99323.50;5052023;28;20242;-61
2022/12/23 03:14:39;;;;;;;0.70;0.70;;;;;;;0.92;100.00;99328.53;5052299;28;20258;-61
2022/12/23 03:17:21;;;;;;;0.77;0.77;;;;;;;0.96;100.00;99325.22;5052592;28;20211;-62
2022/12/23 03:19:54;;;;;;;0.53;0.53;;;;;;;0.93;100.00;99319.28;5051356;28;20223;-61
2022/12/23 03:22:32;;;;;;;0.70;0.70;;;;;;;0.94;100.00;99326.84;5052412;28;20330;-61
2022/12/23 03:25:05;;;;;;;0.70;0.70;;;;;;;0.91;100.00;99324.31;5051409;28;20211;-62
2022/12/23 03:27:39;;;;;;;0.60;0.60;;;;;;;0.95;100.00;99335.28;5052270;28;20200;-62
2022/12/23 03:30:10;;;;;;;0.70;0.70;;;;;;;0.97;100.00;99331.91;5051893;28;20203;-62
2022/12/23 03:32:47;;;;;;;0.77;0.77;;;;;;;0.99;100.00;99326.91;5052265;28;20657;-62
2022/12/23 03:35:18;;;;;;;0.67;0.67;;;;;;;0.96;100.00;99330.25;5049529;28;20614;-61
2022/12/23 03:37:48;;;;;;;0.70;0.70;;;;;;;0.81;100.00;99304.06;5052173;28;20197;-61
2022/12/23 03:40:19;;;;;;;0.83;0.83;;;;;;;0.97;100.00;99331.91;5052171;28;20208;-62
2022/12/23 03:42:53;;;;;;;6.37;1.40;;;;;;;0.81;100.00;99314.97;5051740;28;20200;-61
2022/12/23 03:45:24;;;;;;;1.80;1.37;;;;;;;0.91;100.00;99326.84;5052153;28;20199;-62
2022/12/23 03:47:56;;;;;;;0.63;0.63;;;;;;;0.96;100.00;99329.41;5051738;28;20196;-62
2022/12/23 03:50:24;;;;;;;0.70;0.70;;;;;;;0.94;100.00;99331.91;5051849;28;20562;-62
2022/12/23 03:52:56;;;;;;;0.60;0.60;;;;;;;0.92;100.00;99328.53;5051721;28;20687;-61
2022/12/23 03:55:27;;;;;;;0.80;0.80;;;;;;;0.95;100.00;99333.59;5051190;28;20626;-61
2022/12/23 03:58:02;;;;;;;0.93;0.93;;;;;;;0.93;100.00;99334.44;5051389;28;20246;-62
2022/12/23 04:00:34;;;;;;;0.60;0.60;;;;;;;0.90;100.00;99335.25;5048920;28;20701;-61
2022/12/23 04:03:10;;;;;;;0.80;0.80;;;;;;;0.88;100.00;99331.88;5051026;28;20220;-61
2022/12/23 04:05:40;;;;;;;0.60;0.60;;;;;;;0.84;100.00;99332.66;5051356;28;20643;-61
2022/12/23 04:08:12;;;;;;;0.60;0.60;;;;;;;0.86;100.00;99331.03;5051639;28;20201;-62
2022/12/23 04:10:39;;;;;;;0.70;0.70;;;;;;;0.88;100.00;99331.88;5051125;28;20197;-61
2022/12/23 04:13:06;;;;;;;0.60;0.60;;;;;;;0.88;100.00;99331.88;5051210;28;20201;-62
2022/12/23 04:15:33;;;;;;;0.60;0.60;;;;;;;0.86;100.00;99332.69;5051218;28;20651;-61
2022/12/23 04:18:00;;;;;;;0.80;0.80;;;;;;;0.85;100.00;99326.78;5051076;28;20205;-61
2022/12/23 04:20:28;;;;;;;0.60;0.60;;;;;;;0.84;100.00;99330.13;5050983;28;20293;-62
2022/12/23 04:22:55;;;;;;;0.87;0.87;;;;;;;0.82;100.00;99331.81;5050898;28;20601;-62
2022/12/23 04:25:21;;;;;;;0.60;0.60;;;;;;;0.80;100.00;99330.13;5051130;28;20196;-62
2022/12/23 04:27:48;;;;;;;0.87;0.87;;;;;;;0.75;100.00;99304.00;5051044;28;20216;-62
2022/12/23 04:30:15;;;;;;;0.60;0.60;;;;;;;0.73;100.00;99290.53;5050996;28;20568;-62
2022/12/23 04:32:43;;;;;;;0.70;0.70;;;;;;;0.82;100.00;99306.59;5050871;28;20576;-61
2022/12/23 04:35:10;;;;;;;0.70;0.70;;;;;;;0.84;100.00;99319.22;5050817;28;20212;-62
2022/12/23 04:37:39;;;;;;;0.70;0.70;;;;;;;0.80;100.00;99328.47;5051181;28;20204;-62
2022/12/23 04:40:07;;;;;;;0.70;0.70;;;;;;;0.81;100.00;99331.81;5050731;28;20228;-62
2022/12/23 04:42:34;;;;;;;0.70;0.70;;;;;;;0.72;100.00;99319.13;5050678;28;20196;-62
2022/12/23 04:45:01;;;;;;;0.77;0.77;;;;;;;0.81;100.00;99329.31;5050111;28;20201;-61
2022/12/23 04:47:28;;;;;;;0.60;0.60;;;;;;;0.80;100.00;99325.94;5050497;28;20200;-61
2022/12/23 04:49:55;;;;;;;0.80;0.80;;;;;;;0.79;100.00;99325.91;5050732;28;20204;-61
2022/12/23 04:52:22;;;;;;;0.90;0.90;;;;;;;0.78;100.00;99335.16;5050114;28;20196;-62
2022/12/23 04:54:50;;;;;;;0.70;0.70;;;;;;;0.76;100.00;99329.25;5050208;28;20587;-62
2022/12/23 04:57:17;;;;;;;0.60;0.60;;;;;;;0.71;100.00;99330.88;5049395;28;20200;-62
2022/12/23 04:59:44;;;;;;;0.80;0.80;;;;;;;0.76;100.00;99341.88;5050292;28;20232;-61
2022/12/23 05:02:11;;;;;;;0.60;0.60;;;;;;;0.72;100.00;99330.06;5050482;28;20577;-62
2022/12/23 05:04:37;;;;;;;0.60;0.60;;;;;;;0.67;100.00;99330.88;5050048;28;20212;-62
2022/12/23 05:07:05;;;;;;;0.60;0.60;;;;;;;0.70;100.00;99331.75;5050172;28;20250;-62
2022/12/23 05:09:32;;;;;;;0.70;0.70;;;;;;;0.61;100.00;99313.16;5050204;28;20656;-62
2022/12/23 05:12:00;;;;;;;0.80;0.80;;;;;;;0.70;100.00;99334.25;5050552;28;20215;-62
2022/12/23 05:14:26;;;;;;;0.60;0.60;;;;;;;0.73;100.00;99330.91;5050100;28;20657;-62
2022/12/23 05:16:53;;;;;;;1.13;1.13;;;;;;;0.74;100.00;99328.41;5050408;28;20197;-62
2022/12/23 05:19:20;;;;;;;0.60;0.60;;;;;;;0.75;100.00;99335.13;5050307;28;20227;-61
2022/12/23 05:21:47;;;;;;;0.80;0.80;;;;;;;0.76;100.00;99336.81;5050379;28;20200;-61
2022/12/23 05:24:13;;;;;;;0.90;0.90;;;;;;;0.77;100.00;99333.47;5050383;28;20699;-62
2022/12/23 05:26:40;;;;;;;0.50;0.50;;;;;;;0.80;100.00;99333.50;5048202;28;20224;-61
2022/12/23 05:29:08;;;;;;;0.60;0.60;;;;;;;0.77;100.00;99346.09;5050040;28;20623;-61
2022/12/23 05:31:35;;;;;;;0.70;0.70;;;;;;;0.78;100.00;99340.19;5048023;28;20579;-62
2022/12/23 05:34:02;;;;;;;0.50;0.50;;;;;;;0.72;100.00;99330.06;5050283;28;20668;-61
2022/12/23 05:36:29;;;;;;;0.70;0.70;;;;;;;0.81;100.00;99341.91;5043512;28;20205;-62
2022/12/23 05:38:56;;;;;;;0.80;0.80;;;;;;;0.79;100.00;99348.63;5045714;28;20232;-62
2022/12/23 05:41:23;;;;;;;0.67;0.67;;;;;;;0.79;100.00;99354.50;5043460;28;20205;-62
2022/12/23 05:43:50;;;;;;;0.67;0.67;;;;;;;0.79;100.00;99362.06;5045168;28;20201;-62
2022/12/23 05:46:18;;;;;;;0.80;0.80;;;;;;;0.80;100.00;99367.97;5048545;28;20692;-62
2022/12/23 05:48:45;;;;;;;0.60;0.60;;;;;;;0.81;100.00;99359.59;5049067;28;20254;-62
2022/12/23 05:51:12;;;;;;;0.60;0.60;;;;;;;0.78;100.00;99360.38;5049942;28;20327;-62
2022/12/23 05:53:38;;;;;;;0.63;0.63;;;;;;;0.75;100.00;99362.88;5049598;28;20204;-62
2022/12/23 05:56:06;;;;;;;0.70;0.70;;;;;;;0.74;100.00;99373.81;5049800;28;20193;-62
2022/12/23 05:58:33;;;;;;;0.70;0.70;;;;;;;0.74;100.00;99371.31;5050041;28;20565;-62
2022/12/23 06:01:01;;;;;;;0.73;0.73;;;;;;;0.75;100.00;99370.44;5049890;28;20212;-62
2022/12/23 06:03:29;;;;;;;0.60;0.60;;;;;;;0.76;100.00;99362.06;5049380;28;20200;-62
2022/12/23 06:05:56;;;;;;;0.60;0.60;;;;;;;0.71;100.00;99360.34;5049568;28;20197;-62
2022/12/23 06:08:24;;;;;;;0.60;0.60;;;;;;;0.71;100.00;99353.59;5049017;28;20205;-62
2022/12/23 06:10:50;;;;;;;1.27;1.27;;;;;;;0.70;100.00;99354.44;5049757;28;20208;-62
2022/12/23 06:13:17;;;;;;;0.70;0.70;;;;;;;0.67;100.00;99346.00;5050132;28;20201;-62
2022/12/23 06:15:44;;;;;;;0.77;0.77;;;;;;;0.74;100.00;99348.59;5049757;28;20196;-62
2022/12/23 06:18:11;;;;;;;0.70;0.70;;;;;;;0.75;100.00;99355.31;5046863;28;20205;-62
2022/12/23 06:20:39;;;;;;;0.60;0.60;;;;;;;0.76;100.00;99362.06;5048195;28;20279;-62
2022/12/23 06:23:05;;;;;;;0.70;0.70;;;;;;;0.81;100.00;99364.63;5049226;28;20197;-62
2022/12/23 06:25:32;;;;;;;0.60;0.60;;;;;;;0.81;100.00;99365.44;5049542;28;20554;-62
2022/12/23 06:27:59;;;;;;;0.90;0.90;;;;;;;0.84;100.00;99369.69;5049112;28;20204;-62
2022/12/23 06:30:26;;;;;;;0.60;0.60;;;;;;;0.84;100.00;99368.00;5049490;28;20201;-62
2022/12/23 06:32:53;;;;;;;1.90;1.90;;;;;;;0.81;100.00;99354.53;5049645;28;20577;-62
2022/12/23 06:35:19;;;;;;;0.60;0.60;;;;;;;0.87;100.00;99362.97;5049344;28;20197;-62
2022/12/23 06:37:48;;;;;;;0.60;0.60;;;;;;;0.87;100.00;99370.53;5049144;28;20582;-62
2022/12/23 06:40:14;;;;;;;0.97;0.97;;;;;;;0.87;100.00;99365.50;5053228;28;20596;-62
2022/12/23 06:42:41;;;;;;;0.77;0.77;;;;;;;0.89;100.00;99368.88;5053098;28;20200;-62
2022/12/23 06:45:09;;;;;;;0.60;0.60;;;;;;;0.89;100.00;99368.88;5052583;28;20262;-62
2022/12/23 06:47:36;;;;;;;0.70;0.70;;;;;;;0.82;100.00;99357.06;5052555;28;20196;-62
2022/12/23 06:50:03;;;;;;;0.67;0.67;;;;;;;0.96;100.00;99374.84;5050912;28;20691;-63
2022/12/23 06:52:30;;;;;;;0.70;0.70;;;;;;;0.99;100.00;99375.72;5052325;28;20216;-62
2022/12/23 06:54:58;;;;;;;0.73;0.73;;;;;;;1.03;100.00;99367.28;5052246;28;20197;-62
2022/12/23 06:57:25;;;;;;;0.60;0.60;;;;;;;1.05;100.00;99363.13;5052484;28;20197;-62
2022/12/23 06:59:52;;;;;;;0.60;0.60;;;;;;;1.05;100.00;99365.66;5052212;28;20220;-63
2022/12/23 07:02:18;;;;;;;0.60;0.60;;;;;;;1.05;100.00;99367.31;5052302;28;20286;-62
2022/12/23 07:04:45;;;;;;;0.60;0.60;;;;;;;1.08;100.00;99363.97;5049866;28;20204;-62
2022/12/23 07:07:12;;;;;;;0.80;0.80;;;;;;;1.07;100.00;99367.34;5052492;28;20208;-67
2022/12/23 07:09:39;;;;;;;0.67;0.67;;;;;;;1.07;100.00;99360.59;5052081;28;20635;-61
2022/12/23 07:12:07;;;;;;;0.63;0.63;;;;;;;1.11;100.00;99374.09;5052398;28;20197;-61
2022/12/23 07:14:34;;;;;;;0.80;0.80;;;;;;;1.12;100.00;99378.31;5051869;28;20200;-61
2022/12/23 07:17:01;;;;;;;0.90;0.90;;;;;;;1.15;100.00;99376.66;5052175;28;20565;-60
2022/12/23 07:19:27;;;;;;;0.60;0.60;;;;;;;1.16;100.00;99372.47;5051979;28;20593;-62
2022/12/23 07:21:54;;;;;;;0.60;0.60;;;;;;;1.16;100.00;99377.50;5051302;28;20193;-61
2022/12/23 07:24:21;;;;;;;0.60;0.60;;;;;;;1.21;100.00;99380.91;5049500;28;20209;-60
2022/12/23 07:26:48;;;;;;;1.33;1.23;;;;;;;1.19;100.00;99382.56;5049736;28;20608;-60
2022/12/23 07:29:16;;;;;;;1.23;1.23;;;;;;;1.17;100.00;99374.13;5048758;28;20201;-60
2022/12/23 07:31:43;;;;;;;0.63;0.63;;;;;;;1.16;100.00;99374.97;5050358;28;20291;-60
2022/12/23 07:34:10;;;;;;;1.07;1.07;;;;;;;1.15;100.00;99388.44;5047339;28;20270;-60
2022/12/23 07:36:36;;;;;;;0.73;0.73;;;;;;;1.17;100.00;99394.31;5049237;28;20668;-60
2022/12/23 07:39:03;;;;;;;0.97;0.97;;;;;;;1.20;100.00;99386.75;5047372;28;20247;-66
2022/12/23 07:41:30;;;;;;;0.50;0.50;;;;;;;1.26;100.00;99387.66;5047593;28;20372;-62
2022/12/23 07:43:57;;;;;;;0.60;0.60;;;;;;;1.31;100.00;99388.53;5049791;28;20201;-62
2022/12/23 07:46:25;;;;;;;0.60;0.60;;;;;;;1.36;100.00;99393.59;5051047;28;20588;-61
2022/12/23 07:48:52;;;;;;;0.80;0.80;;;;;;;1.41;100.00;99394.50;5051028;28;20220;-62
2022/12/23 07:51:19;;;;;;;0.70;0.70;;;;;;;1.43;100.00;99381.03;5050057;28;20212;-61
2022/12/23 07:53:49;;;;;;;0.50;0.50;;;;;;;1.52;100.00;99382.75;5050857;28;20250;-61
2022/12/23 07:56:16;;;;;;;0.80;0.80;;;;;;;1.65;100.00;99387.03;5051416;28;20192;-62
2022/12/23 07:58:42;;;;;;;0.80;0.80;;;;;;;1.69;100.00;99386.22;5051224;28;20208;-61
2022/12/23 08:01:09;;;;;;;0.60;0.60;;;;;;;1.78;100.00;99373.63;5050659;28;20225;-62
2022/12/23 08:03:38;;;;;;;3.00;2.90;;;;;;;1.87;100.00;99376.22;5050903;28;20296;-62
2022/12/23 08:06:06;;;;;;;0.70;0.70;;;;;;;1.90;100.00;99386.34;5050081;28;20192;-62
2022/12/23 08:08:34;;;;;;;0.50;0.50;;;;;;;1.97;100.00;99382.97;5050712;28;20197;-62
2022/12/23 08:11:03;;;;;;;0.60;0.60;;;;;;;2.01;100.00;99367.00;5051122;28;20200;-61
2022/12/23 08:13:31;;;;;;;0.60;0.60;;;;;;;2.20;100.00;99377.19;5050867;28;20197;-62
2022/12/23 08:16:00;;;;;;;0.60;0.60;;;;;;;2.27;100.00;99384.78;5050362;28;20220;-62
2022/12/23 08:18:29;;;;;;;0.50;0.50;;;;;;;2.32;100.00;99394.91;5051031;28;20204;-62
2022/12/23 08:20:59;;;;;;;0.70;0.70;;;;;;;2.42;100.00;99386.50;5047614;28;20239;-62
2022/12/23 08:23:28;;;;;;;0.60;0.60;;;;;;;2.51;100.00;99392.44;5047928;28;20212;-62
2022/12/23 08:26:02;;;;;;;0.80;0.80;;;;;;;2.60;100.00;99391.59;5048553;28;20213;-61
2022/12/23 08:28:29;;;;;;;0.60;0.60;;;;;;;2.71;100.00;99387.41;5043890;28;20206;-62
2022/12/23 08:31:02;;;;;;;0.70;0.70;;;;;;;2.79;100.00;99392.44;5045683;28;20211;-62
2022/12/23 08:33:29;;;;;;;0.60;0.60;;;;;;;2.91;100.00;99385.69;5047969;28;20204;-62
2022/12/23 08:35:57;;;;;;;1.23;1.23;;;;;;;3.00;100.00;99383.19;5049583;28;20205;-61
2022/12/23 08:38:24;;;;;;;0.70;0.70;;;;;;;3.14;100.00;99384.00;5047749;28;20208;-61
2022/12/23 08:40:51;;;;;;;0.80;0.80;;;;;;;3.38;100.00;99384.84;5046436;28;20454;-59
2022/12/23 08:43:17;;;;;;;0.70;0.70;;;;;;;3.57;100.00;99381.41;5047220;28;20201;-59
2022/12/23 08:45:44;;;;;;;0.60;0.60;;;;;;;3.74;100.00;99381.38;5046936;28;20800;-61
2022/12/23 08:48:12;;;;;;;0.80;0.80;;;;;;;3.88;100.00;99383.00;5047943;28;20208;-61
2022/12/23 08:50:40;;;;;;;0.70;0.70;;;;;;;3.95;100.00;99379.59;5047130;28;20260;-61
2022/12/23 08:53:09;;;;;;;0.73;0.73;;;;;;;3.95;100.00;99359.31;5046160;28;20266;-61
2022/12/23 08:55:39;;;;;;;0.77;0.77;;;;;;;3.99;100.00;99360.13;5047584;28;20239;-61
2022/12/23 08:58:07;;;;;;;0.60;0.60;;;;;;;3.99;100.00;99371.13;5049410;28;20254;-62
2022/12/23 09:00:36;;;;;;;0.53;0.53;;;;;;;4.03;100.00;99365.19;5044061;28;20220;-61
2022/12/23 09:03:03;;;;;;;0.60;0.60;;;;;;;4.04;100.00;99353.38;5045826;28;20232;-61
2022/12/23 09:05:30;;;;;;;0.70;0.70;;;;;;;4.06;100.00;99352.50;5048161;28;20212;-61
2022/12/23 09:07:57;;;;;;;1.03;0.93;;;;;;;4.05;100.00;99350.81;5045916;28;20207;-68
2022/12/23 09:10:26;;;;;;;0.77;0.77;;;;;;;4.19;100.00;99356.66;5045300;28;20722;-62
2022/12/23 09:12:52;;;;;;;0.80;0.80;;;;;;;4.30;100.00;99348.16;5047384;28;20660;-63
2022/12/23 09:15:19;;;;;;;1.60;1.50;;;;;;;4.32;100.00;99347.28;5046047;28;20209;-61
2022/12/23 09:17:46;;;;;;;0.80;0.80;;;;;;;4.42;100.00;99350.59;5047853;28;20200;-62
2022/12/23 09:20:13;;;;;;;0.77;0.77;;;;;;;4.46;100.00;99352.28;5048138;28;20291;-60
2022/12/23 09:22:40;;;;;;;0.50;0.50;;;;;;;4.57;100.00;99347.97;5048310;28;20196;-61
2022/12/23 09:25:07;;;;;;;0.50;0.50;;;;;;;4.70;100.00;99340.25;5047892;28;20205;-61
2022/12/23 09:27:35;;;;;;;1.47;1.47;;;;;;;4.77;100.00;99343.59;5045755;28;20926;-62
2022/12/23 09:30:02;;;;;;;0.80;0.80;;;;;;;4.81;100.00;99345.25;5045950;28;20209;-62
2022/12/23 09:32:29;;;;;;;0.60;0.60;;;;;;;4.85;100.00;99346.88;5046967;28;20200;-61
2022/12/23 09:34:56;;;;;;;1.13;1.13;;;;;;;4.92;100.00;99346.00;5046910;28;20208;-61
2022/12/23 09:37:24;;;;;;;0.60;0.60;;;;;;;4.94;100.00;99340.91;5047459;28;20209;-61
2022/12/23 09:39:51;;;;;;;0.73;0.73;;;;;;;4.99;100.00;99345.09;5046761;28;20208;-61
2022/12/23 09:42:28;;;;;;;0.60;0.60;;;;;;;4.98;100.00;99337.47;5046596;28;20286;-61
2022/12/23 09:45:11;;;;;;;0.60;0.60;;;;;;;4.98;100.00;99337.47;5043604;28;20200;-61
2022/12/23 09:47:41;;;;;;;0.70;0.70;;;;;;;5.02;100.00;99337.44;5043495;28;20686;-61
2022/12/23 09:50:20;;;;;;;0.53;0.53;;;;;;;5.06;100.00;99331.47;5047393;28;20213;-60
2022/12/23 09:52:58;;;;;;;0.60;0.60;;;;;;;5.10;100.00;99333.16;5045837;28;20955;-61
2022/12/23 09:55:34;;;;;;;0.93;0.93;;;;;;;5.13;100.00;99324.66;5047030;28;20699;-61
2022/12/23 09:58:04;;;;;;;0.50;0.50;;;;;;;5.17;100.00;99329.66;5047769;28;20205;-61
2022/12/23 10:00:39;;;;;;;0.60;0.60;;;;;;;5.24;100.00;99330.44;5041934;28;20751;-60
2022/12/23 10:03:20;;;;;;;0.67;0.67;;;;;;;5.29;100.00;99319.41;5046900;28;20723;-61
2022/12/23 10:06:00;;;;;;;0.97;0.97;;;;;;;5.29;100.00;99309.25;5047729;28;20251;-61
2022/12/23 10:08:33;;;;;;;1.10;1.10;;;;;;;5.35;100.00;99312.56;5047527;28;20223;-61
2022/12/23 10:11:05;;;;;;;0.70;0.70;;;;;;;5.47;100.00;99313.25;5047999;28;20531;-61
2022/12/23 10:13:37;;;;;;;1.00;1.00;;;;;;;5.51;100.00;99309.00;5047891;28;20205;-61
2022/12/23 10:16:08;;;;;;;1.13;1.10;;;;;;;5.58;100.00;99308.91;5048757;28;20201;-61
2022/12/23 10:18:52;;;;;;;0.60;0.60;;;;;;;5.64;100.00;99305.44;5045379;28;20306;-61
2022/12/23 10:21:29;;;;;;;0.40;0.40;;;;;;;5.69;100.00;99298.59;5049192;28;20225;-61
2022/12/23 10:23:56;;;;;;;0.50;0.50;;;;;;;5.81;100.00;99298.47;5050243;28;20684;-62
2022/12/23 10:26:25;;;;;;;0.70;0.70;;;;;;;5.95;100.00;99296.59;5049390;28;20269;-61
2022/12/23 10:28:59;;;;;;;2.90;1.27;;;;;;;6.06;100.00;99304.94;5051621;28;20275;-62
2022/12/23 10:31:37;;;;;;;0.50;0.50;;;;;;;6.02;100.00;99288.03;5049575;28;20692;-61
2022/12/23 10:34:12;;;;;;;1.20;1.20;;;;;;;6.18;100.00;99299.66;5048263;28;20220;-61
2022/12/23 10:36:49;;;;;;;0.67;0.67;;;;;;;6.19;100.00;99298.81;5047732;28;20204;-61
2022/12/23 10:39:25;;;;;;;0.80;0.80;;;;;;;6.19;98.93;99301.38;5049349;28;20265;-61
2022/12/23 10:42:03;;;;;;;2.20;1.20;;;;;;;6.25;97.56;99301.28;5048302;28;20217;-61
2022/12/23 10:44:59;;;;;;;0.70;0.70;;;;;;;6.23;94.92;99303.00;5050039;28;20204;-62
2022/12/23 10:47:38;;;;;;;1.53;1.50;;;;;;;6.20;94.46;99303.03;5046161;28;20211;-61
2022/12/23 10:50:21;;;;;;;0.83;0.83;;;;;;;6.22;93.71;99293.69;5048013;28;20204;-61
2022/12/23 10:52:49;;;;;;;0.60;0.60;;;;;;;6.33;92.06;99304.53;5048791;28;20200;-61
2022/12/23 10:55:22;;;;;;;0.50;0.50;;;;;;;6.32;92.50;99297.78;5049923;28;20209;-61
2022/12/23 10:57:50;;;;;;;0.70;0.70;;;;;;;6.38;93.53;99303.63;5048572;28;20900;-62
2022/12/23 11:00:21;;;;;;;0.60;0.60;;;;;;;6.47;93.01;99293.31;5047224;28;20209;-61
2022/12/23 11:03:03;;;;;;;0.50;0.50;;;;;;;6.50;92.96;99290.72;5047250;28;20232;-61
2022/12/23 11:05:30;;;;;;;0.50;0.50;;;;;;;6.50;92.09;99290.72;5047088;28;20208;-61
2022/12/23 11:07:58;;;;;;;0.80;0.80;;;;;;;6.51;91.32;99297.50;5049083;28;20215;-61
2022/12/23 11:10:31;;;;;;;0.60;0.60;;;;;;;6.60;91.94;99294.78;5046504;28;20204;-61
2022/12/23 11:12:59;;;;;;;1.07;1.07;;;;;;;6.65;92.36;99288.78;5046799;28;20207;-61
2022/12/23 11:15:32;;;;;;;2.83;2.70;;;;;;;6.74;91.75;99296.28;5048871;28;20295;-61
2022/12/23 11:18:07;;;;;;;0.60;0.60;;;;;;;6.75;92.45;99292.03;5046423;28;20231;-61
2022/12/23 11:20:36;;;;;;;0.50;0.50;;;;;;;6.83;92.06;99285.91;5048120;28;20265;-61
2022/12/23 11:23:05;;;;;;;0.57;0.57;;;;;;;6.88;91.71;99279.91;5047639;28;20220;-62
2022/12/23 11:25:35;;;;;;;1.17;1.17;;;;;;;6.91;91.88;99282.41;5046514;28;20209;-62
2022/12/23 11:28:06;;;;;;;0.43;0.43;;;;;;;6.65;92.65;99254.81;5050354;28;20258;-61
2022/12/23 11:30:37;;;;;;;0.70;0.70;;;;;;;6.87;92.38;99271.41;5051180;28;20192;-61
2022/12/23 11:33:06;;;;;;;0.60;0.60;;;;;;;6.95;92.68;99279.75;5051207;28;20205;-61
2022/12/23 11:35:35;;;;;;;1.60;1.60;;;;;;;6.94;91.85;99257.72;5050230;28;20196;-61
2022/12/23 11:38:03;;;;;;;0.60;0.60;;;;;;;7.01;90.94;99271.19;5048973;28;20197;-62
2022/12/23 11:40:32;;;;;;;0.90;0.90;;;;;;;6.91;89.54;99270.50;5045858;28;20223;-61
2022/12/23 11:43:01;;;;;;;0.60;0.60;;;;;;;7.06;90.06;99271.94;5047746;28;20310;-61
2022/12/23 11:45:30;;;;;;;2.67;2.47;;;;;;;7.11;89.89;99276.06;5050127;28;20295;-62
2022/12/23 11:47:57;;;;;;;0.53;0.53;;;;;;;7.14;89.53;99260.72;5051290;28;20201;-62
2022/12/23 11:50:32;;;;;;;0.60;0.60;;;;;;;7.25;90.33;99269.03;5050861;28;20209;-61
2022/12/23 11:53:12;;;;;;;0.63;0.63;;;;;;;7.29;89.67;99264.69;5050443;28;20437;-59
2022/12/23 11:55:46;;;;;;;0.50;0.50;;;;;;;7.37;89.02;99238.19;5050892;28;20208;-59
2022/12/23 11:58:19;;;;;;;1.27;1.23;;;;;;;7.43;89.09;99257.63;5052273;28;20664;-59
2022/12/23 12:00:54;;;;;;;0.50;0.50;;;;;;;7.44;89.13;99250.81;5051543;28;20203;-59
2022/12/23 12:03:26;;;;;;;0.63;0.63;;;;;;;7.45;89.09;99245.69;5051867;28;20200;-59
2022/12/23 12:05:58;;;;;;;0.80;0.80;;;;;;;7.37;89.52;99240.72;5050866;28;20201;-59
2022/12/23 12:08:31;;;;;;;0.80;0.80;;;;;;;7.48;89.48;99240.53;5051440;28;20203;-60
2022/12/23 12:11:02;;;;;;;0.50;0.50;;;;;;;7.55;89.97;99236.13;5051087;28;20287;-59
2022/12/23 12:13:32;;;;;;;0.60;0.60;;;;;;;7.60;89.77;99244.50;5049675;28;20249;-59
2022/12/23 12:16:28;;;;;;;1.10;1.10;;;;;;;7.58;88.11;99242.00;5050150;28;20192;-59
2022/12/23 12:18:57;;;;;;;1.70;1.70;;;;;;;7.68;88.42;99242.66;5051001;28;20201;-59